Time;durP1;ratioP1;P1;durP2;ratioP2;P2;SDS_P1;SDS_P2;PMS_P1;PMS_P2;Temp;Humidity;BMP_temperature;BMP_pressure;BME280_temperature;BME280_humidity;BME280_pressure;Samples;Min_cycle;Max_cycle;Signal;HPM_P1;HPM_P2
2022/09/25 00:00:41;;;;;;;18.53;7.97;;;;;;;;;;5049005;28;20991;-61
2022/09/25 00:03:09;;;;;;;17.20;8.53;;;14.70;99.40;;;;;;5043003;28;20555;-61
2022/09/25 00:05:36;;;;;;;18.40;11.17;;;14.70;99.50;;;;;;5045786;28;20556;-61
2022/09/25 00:08:03;;;;;;;25.27;9.30;;;14.60;99.60;;;;;;5046477;28;21252;-61
2022/09/25 00:10:30;;;;;;;21.57;10.43;;;14.60;99.90;;;;;;5047239;28;20505;-62
2022/09/25 00:12:56;;;;;;;16.83;9.83;;;14.60;99.90;;;;;;5053092;28;20502;-62
2022/09/25 00:15:23;;;;;;;19.00;11.77;;;14.60;99.90;;;;;;5039120;28;20739;-60
2022/09/25 00:17:50;;;;;;;27.00;12.53;;;14.40;99.90;;;;;;5050496;28;20480;-60
2022/09/25 00:20:19;;;;;;;13.50;8.67;;;14.60;99.90;;;;;;5051973;28;20487;-61
2022/09/25 00:22:46;;;;;;;18.23;9.50;;;14.60;99.90;;;;;;5052648;28;20495;-61
2022/09/25 00:25:14;;;;;;;12.77;7.57;;;14.50;99.90;;;;;;5052238;28;21132;-61
2022/09/25 00:27:42;;;;;;;23.63;10.23;;;14.50;99.90;;;;;;5050788;28;20573;-61
2022/09/25 00:30:11;;;;;;;22.03;7.40;;;14.50;99.70;;;;;;5053282;28;20487;-61
2022/09/25 00:32:37;;;;;;;19.23;9.63;;;14.50;99.90;;;;;;5052397;28;20505;-61
2022/09/25 00:35:05;;;;;;;22.60;8.80;;;14.50;99.90;;;;;;5053265;28;20475;-60
2022/09/25 00:37:35;;;;;;;15.53;8.40;;;;;;;;;;5052192;28;20536;-61
2022/09/25 00:40:02;;;;;;;17.57;9.00;;;14.50;99.90;;;;;;5048528;28;20613;-61
2022/09/25 00:42:29;;;;;;;24.60;11.30;;;14.40;99.90;;;;;;5051734;28;21183;-60
2022/09/25 00:44:59;;;;;;;25.80;9.40;;;14.30;99.90;;;;;;5054311;28;20487;-61
2022/09/25 00:47:44;;;;;;;14.13;8.80;;;14.20;99.90;;;;;;5052940;28;20486;-61
2022/09/25 00:50:20;;;;;;;21.93;8.20;;;14.20;99.90;;;;;;5051870;28;20479;-60
2022/09/25 00:52:49;;;;;;;22.77;9.87;;;14.30;99.90;;;;;;5051764;28;20748;-61
2022/09/25 00:55:16;;;;;;;15.80;10.67;;;14.40;99.90;;;;;;5052163;28;20483;-61
2022/09/25 00:57:48;;;;;;;20.40;9.83;;;14.40;99.90;;;;;;5047239;28;20492;-61
2022/09/25 01:00:15;;;;;;;14.23;8.67;;;14.50;99.90;;;;;;5052130;28;20836;-61
2022/09/25 01:02:46;;;;;;;30.40;9.47;;;14.60;99.90;;;;;;5051879;28;20475;-61
2022/09/25 01:05:16;;;;;;;13.43;8.20;;;14.60;99.90;;;;;;5050658;28;21010;-62
2022/09/25 01:07:46;;;;;;;21.73;11.83;;;14.70;99.90;;;;;;5050794;28;20545;-61
2022/09/25 01:10:15;;;;;;;20.90;10.90;;;;;;;;;;5047634;28;20491;-61
2022/09/25 01:12:47;;;;;;;19.37;10.83;;;14.70;99.90;;;;;;5045766;28;20900;-61
2022/09/25 01:15:15;;;;;;;14.57;8.97;;;;;;;;;;5051904;28;20519;-61
2022/09/25 01:17:47;;;;;;;22.13;12.73;;;14.80;99.90;;;;;;5051568;28;20490;-61
2022/09/25 01:20:18;;;;;;;14.30;8.30;;;;;;;;;;5051069;28;20529;-61
2022/09/25 01:22:51;;;;;;;19.27;8.47;;;;;;;;;;5040848;28;20513;-61
2022/09/25 01:25:32;;;;;;;15.70;9.57;;;14.70;99.90;;;;;;5048741;28;20562;-61
2022/09/25 01:28:18;;;;;;;21.00;10.70;;;14.60;99.90;;;;;;5038084;28;20859;-61
2022/09/25 01:30:52;;;;;;;20.17;11.87;;;14.50;99.90;;;;;;5048647;28;20884;-61
2022/09/25 01:33:24;;;;;;;22.50;11.03;;;14.50;99.90;;;;;;5048255;28;20537;-61
2022/09/25 01:36:00;;;;;;;23.37;10.60;;;14.60;99.90;;;;;;5045945;28;21381;-61
2022/09/25 01:38:33;;;;;;;18.17;11.37;;;14.60;99.90;;;;;;5031095;28;21125;-61
2022/09/25 01:41:06;;;;;;;16.87;11.10;;;14.70;99.90;;;;;;5029106;28;20831;-61
2022/09/25 01:43:35;;;;;;;24.43;9.70;;;;;;;;;;5020986;28;20741;-60
2022/09/25 01:46:08;;;;;;;17.30;9.90;;;;;;;;;;5031504;28;20595;-60
2022/09/25 01:48:38;;;;;;;20.40;10.20;;;14.70;99.90;;;;;;5030994;28;20855;-60
2022/09/25 01:51:10;;;;;;;24.83;11.13;;;14.60;99.90;;;;;;5041998;28;20927;-61
2022/09/25 01:53:39;;;;;;;23.73;13.43;;;;;;;;;;5038072;28;21382;-60
2022/09/25 01:56:09;;;;;;;27.70;15.17;;;;;;;;;;5057932;28;20889;-61
2022/09/25 01:58:41;;;;;;;22.53;13.27;;;14.60;99.90;;;;;;5056983;28;20843;-61
2022/09/25 02:01:11;;;;;;;23.43;12.30;;;14.70;99.90;;;;;;5057673;28;20743;-60
2022/09/25 02:03:42;;;;;;;21.73;10.37;;;14.70;99.90;;;;;;5053159;28;20484;-60
2022/09/25 02:06:16;;;;;;;20.33;10.97;;;14.80;99.90;;;;;;5051531;28;20555;-61
2022/09/25 02:08:49;;;;;;;29.13;16.60;;;14.80;99.90;;;;;;5054604;28;20498;-61
2022/09/25 02:11:16;;;;;;;27.73;17.50;;;14.70;99.90;;;;;;5051933;28;20488;-61
2022/09/25 02:13:45;;;;;;;29.93;15.10;;;;;;;;;;5055096;28;20498;-61
2022/09/25 02:16:17;;;;;;;42.90;15.73;;;14.80;99.90;;;;;;5052374;28;20493;-60
2022/09/25 02:21:39;;;;;;;24.83;13.27;;;14.70;99.90;;;;;;5067018;28;20813;-61
2022/09/25 02:24:16;;;;;;;26.73;14.77;;;14.70;99.90;;;;;;5055139;28;20490;-61
2022/09/25 02:26:43;;;;;;;20.73;11.47;;;14.70;99.90;;;;;;5054789;28;20544;-61
2022/09/25 02:29:10;;;;;;;26.23;13.10;;;14.80;99.90;;;;;;5053157;28;20510;-61
2022/09/25 02:31:42;;;;;;;26.13;13.93;;;14.80;99.90;;;;;;5054611;28;20499;-60
2022/09/25 02:34:08;;;;;;;27.73;13.57;;;14.90;99.90;;;;;;5053441;28;20864;-60
2022/09/25 02:36:35;;;;;;;31.10;16.07;;;14.90;99.90;;;;;;5061800;27;20531;-60
2022/09/25 02:39:05;;;;;;;27.73;15.10;;;14.80;99.90;;;;;;5084430;27;20467;-60
2022/09/25 02:41:51;;;;;;;36.10;16.60;;;14.90;99.90;;;;;;5061770;28;20532;-60
2022/09/25 02:44:32;;;;;;;30.63;16.70;;;14.80;99.90;;;;;;5045107;28;20837;-60
2022/09/25 02:47:14;;;;;;;36.33;17.53;;;14.70;99.90;;;;;;5055216;28;20852;-60
2022/09/25 02:49:45;;;;;;;28.43;13.40;;;;;;;;;;5053440;28;20472;-60
2022/09/25 02:52:16;;;;;;;27.53;15.07;;;14.60;99.90;;;;;;5068856;28;20479;-60
2022/09/25 02:54:48;;;;;;;26.73;15.03;;;14.70;99.90;;;;;;5046877;28;20491;-60
2022/09/25 02:57:18;;;;;;;34.17;16.73;;;;;;;;;;5064441;28;20482;-60
2022/09/25 02:59:48;;;;;;;23.90;13.83;;;;;;;;;;5051011;28;20560;-60
2022/09/25 03:02:16;;;;;;;25.90;13.20;;;14.90;99.90;;;;;;5049268;28;21014;-60
2022/09/25 03:04:47;;;;;;;31.40;13.37;;;;;;;;;;5048952;28;20467;-60
2022/09/25 03:07:14;;;;;;;27.10;13.50;;;15.00;99.90;;;;;;5045745;28;20896;-60
2022/09/25 03:09:45;;;;;;;27.70;13.33;;;15.00;99.90;;;;;;5057441;28;20477;-60
2022/09/25 03:12:11;;;;;;;26.87;15.70;;;15.00;99.90;;;;;;5036106;28;20472;-60
2022/09/25 03:14:38;;;;;;;21.83;12.30;;;15.00;99.90;;;;;;5036186;28;21083;-61
2022/09/25 03:17:08;;;;;;;23.70;13.00;;;15.00;99.90;;;;;;5031470;28;20476;-61
2022/09/25 03:19:37;;;;;;;28.60;13.60;;;15.00;99.90;;;;;;5035506;28;20479;-61
2022/09/25 03:22:04;;;;;;;25.00;13.70;;;15.00;99.90;;;;;;5041041;28;20489;-61
2022/09/25 03:24:31;;;;;;;30.90;12.33;;;;;;;;;;5027603;28;20483;-61
2022/09/25 03:26:58;;;;;;;20.63;13.47;;;;;;;;;;5047496;28;21198;-61
2022/09/25 03:29:25;;;;;;;37.17;15.33;;;;;;;;;;5033640;28;20803;-61
2022/09/25 03:31:52;;;;;;;38.10;14.60;;;15.10;99.90;;;;;;5037480;28;20499;-60
2022/09/25 03:34:19;;;;;;;25.63;14.37;;;15.20;99.90;;;;;;5028966;28;20664;-61
2022/09/25 03:36:48;;;;;;;23.43;13.00;;;;;;;;;;5045221;28;20859;-61
2022/09/25 03:39:16;;;;;;;32.90;13.80;;;;;;;;;;5042725;28;20472;-61
2022/09/25 03:41:43;;;;;;;26.40;13.67;;;15.20;99.90;;;;;;5034269;28;20839;-61
2022/09/25 03:44:10;;;;;;;33.60;14.93;;;15.20;99.90;;;;;;5032968;28;20961;-61
2022/09/25 03:46:37;;;;;;;30.03;14.83;;;15.20;99.90;;;;;;5035418;28;20834;-61
2022/09/25 03:49:04;;;;;;;28.60;13.60;;;15.20;99.90;;;;;;5033196;28;20481;-61
2022/09/25 03:51:32;;;;;;;24.97;14.53;;;15.30;99.90;;;;;;5033242;28;20492;-60
2022/09/25 03:54:00;;;;;;;28.33;14.00;;;15.30;99.90;;;;;;5043782;28;20730;-60
2022/09/25 03:56:28;;;;;;;24.30;13.40;;;15.30;99.90;;;;;;5034400;28;20495;-60
2022/09/25 03:58:55;;;;;;;26.77;13.60;;;15.30;99.90;;;;;;5031378;28;20808;-60
2022/09/25 04:01:23;;;;;;;26.07;12.87;;;15.30;99.90;;;;;;5041684;28;21032;-60
2022/09/25 04:03:50;;;;;;;31.40;17.27;;;15.20;99.90;;;;;;5033445;28;20500;-60
2022/09/25 04:06:18;;;;;;;38.43;19.17;;;;;;;;;;5038088;28;20475;-60
2022/09/25 04:08:46;;;;;;;34.90;15.67;;;15.20;99.90;;;;;;5030377;28;20480;-60
2022/09/25 04:11:15;;;;;;;35.20;17.17;;;;;;;;;;5032242;28;20475;-60
2022/09/25 04:13:43;;;;;;;38.20;17.93;;;;;;;;;;5032820;28;20491;-60
2022/09/25 04:16:10;;;;;;;26.50;15.83;;;15.30;99.90;;;;;;5034117;28;20476;-60
2022/09/25 04:18:37;;;;;;;36.10;17.73;;;15.30;99.90;;;;;;5029363;28;20473;-60
2022/09/25 04:21:07;;;;;;;35.20;17.70;;;15.30;99.90;;;;;;5036669;28;20958;-60
2022/09/25 04:23:34;;;;;;;31.50;16.37;;;15.30;99.90;;;;;;5026451;28;21000;-60
2022/09/25 04:26:01;;;;;;;29.43;15.40;;;;;;;;;;5024491;28;20917;-60
2022/09/25 04:28:31;;;;;;;34.50;15.87;;;15.40;99.90;;;;;;5029234;28;20495;-61
2022/09/25 04:30:57;;;;;;;32.30;15.77;;;15.40;99.90;;;;;;5025495;28;21026;-61
2022/09/25 04:36:08;;;;;;;31.73;16.93;;;15.50;99.90;;;;;;5021265;28;20829;-61
2022/09/25 04:38:35;;;;;;;42.10;21.20;;;;;;;;;;5044820;28;20688;-61
2022/09/25 04:41:04;;;;;;;33.40;15.93;;;15.50;99.90;;;;;;5033603;28;20500;-61
2022/09/25 04:43:33;;;;;;;29.67;15.73;;;15.40;99.90;;;;;;5032085;28;20492;-61
2022/09/25 04:46:01;;;;;;;35.67;16.87;;;15.40;99.90;;;;;;5043587;28;20479;-61
2022/09/25 04:48:28;;;;;;;27.83;15.03;;;;;;;;;;5041684;28;20590;-61
2022/09/25 04:50:57;;;;;;;41.30;18.87;;;;;;;;;;5040424;28;20541;-61
2022/09/25 04:53:24;;;;;;;35.80;19.90;;;15.10;99.90;;;;;;5031171;28;20480;-62
2022/09/25 04:55:53;;;;;;;49.63;18.57;;;14.80;99.90;;;;;;5032289;28;20497;-61
2022/09/25 04:58:20;;;;;;;29.33;17.70;;;14.70;99.90;;;;;;5031157;28;20706;-61
2022/09/25 05:00:49;;;;;;;36.20;19.07;;;;;;;;;;5036355;28;20480;-61
2022/09/25 05:03:16;;;;;;;39.03;19.57;;;14.70;99.90;;;;;;5027288;28;20487;-61
2022/09/25 05:05:42;;;;;;;32.67;17.57;;;14.80;99.90;;;;;;5033773;28;20511;-61
2022/09/25 05:08:10;;;;;;;32.37;17.07;;;14.70;99.90;;;;;;5030548;28;20858;-61
2022/09/25 05:10:38;;;;;;;34.90;17.03;;;14.80;99.90;;;;;;5030956;28;20484;-61
2022/09/25 05:13:05;;;;;;;35.53;16.67;;;14.90;99.90;;;;;;5030583;28;20492;-61
2022/09/25 05:15:33;;;;;;;34.70;17.90;;;15.00;99.90;;;;;;5033582;28;20498;-61
2022/09/25 05:18:03;;;;;;;36.83;18.57;;;15.10;99.90;;;;;;5032747;28;20496;-62
2022/09/25 05:20:31;;;;;;;30.93;17.57;;;15.20;99.90;;;;;;5040211;28;20503;-62
2022/09/25 05:22:58;;;;;;;42.03;18.17;;;;;;;;;;5031419;28;20842;-62
2022/09/25 05:25:25;;;;;;;32.30;13.80;;;;;;;;;;5036275;28;20476;-62
2022/09/25 05:27:54;;;;;;;32.60;16.80;;;15.30;99.90;;;;;;5029078;28;20492;-62
2022/09/25 05:30:21;;;;;;;36.93;18.23;;;;;;;;;;5033197;28;20480;-62
2022/09/25 05:32:49;;;;;;;32.33;17.47;;;15.30;99.90;;;;;;5045875;28;20496;-62
2022/09/25 05:35:18;;;;;;;29.60;17.83;;;15.20;99.90;;;;;;5034924;28;20476;-62
2022/09/25 05:37:45;;;;;;;42.13;18.30;;;;;;;;;;5032596;28;20861;-62
2022/09/25 05:40:14;;;;;;;40.23;18.37;;;15.10;99.90;;;;;;5032907;28;20889;-62
2022/09/25 05:42:42;;;;;;;37.60;18.43;;;;;;;;;;5034834;28;20521;-62
2022/09/25 05:45:10;;;;;;;30.77;16.80;;;15.10;99.90;;;;;;5037882;28;20487;-62
2022/09/25 05:47:36;;;;;;;32.80;17.70;;;15.20;99.90;;;;;;5024348;28;20491;-62
2022/09/25 05:50:04;;;;;;;29.23;17.30;;;15.20;99.90;;;;;;5023885;28;20484;-62
2022/09/25 05:52:32;;;;;;;52.10;17.50;;;15.30;99.90;;;;;;5031541;28;20658;-62
2022/09/25 05:54:59;;;;;;;27.47;17.90;;;15.40;99.90;;;;;;5032439;28;21044;-62
2022/09/25 05:57:28;;;;;;;27.77;17.03;;;15.40;99.90;;;;;;5035822;28;20558;-62
2022/09/25 05:59:55;;;;;;;32.13;16.43;;;;;;;;;;5038836;28;20494;-62
2022/09/25 06:02:22;;;;;;;41.67;17.80;;;15.50;99.90;;;;;;5040019;28;20484;-62
2022/09/25 06:04:48;;;;;;;38.20;21.20;;;15.50;99.90;;;;;;5035248;28;20866;-62
2022/09/25 06:07:15;;;;;;;51.70;19.70;;;15.40;99.90;;;;;;5038422;28;20834;-62
2022/09/25 06:09:43;;;;;;;38.90;18.13;;;15.30;99.90;;;;;;5037046;28;20499;-63
2022/09/25 06:12:10;;;;;;;34.77;18.37;;;15.40;99.90;;;;;;5032924;28;20722;-62
2022/09/25 06:14:36;;;;;;;42.90;18.80;;;15.50;99.90;;;;;;5041301;28;20472;-62
2022/09/25 06:17:04;;;;;;;33.87;15.30;;;15.50;99.90;;;;;;5041396;28;21003;-62
2022/09/25 06:19:31;;;;;;;38.80;17.70;;;;;;;;;;5037615;28;20492;-62
2022/09/25 06:21:58;;;;;;;55.73;17.50;;;;;;;;;;5035077;28;20502;-62
2022/09/25 06:24:24;;;;;;;37.53;20.23;;;15.70;99.90;;;;;;5036190;28;20471;-62
2022/09/25 06:26:52;;;;;;;30.17;18.60;;;15.70;99.90;;;;;;5036471;28;20476;-62
2022/09/25 06:29:19;;;;;;;34.53;16.60;;;15.70;99.90;;;;;;5045420;28;20478;-62
2022/09/25 06:31:46;;;;;;;34.80;18.53;;;15.80;99.90;;;;;;5037996;28;20472;-62
2022/09/25 06:34:12;;;;;;;39.03;20.23;;;15.80;99.90;;;;;;5033680;28;20487;-62
2022/09/25 06:36:39;;;;;;;52.10;20.50;;;15.90;99.90;;;;;;5037827;28;20476;-63
2022/09/25 06:39:06;;;;;;;38.57;20.10;;;15.80;99.90;;;;;;5033458;28;20733;-62
2022/09/25 06:41:32;;;;;;;34.93;18.40;;;15.80;99.90;;;;;;5036415;28;20484;-62
2022/09/25 06:44:01;;;;;;;42.33;21.50;;;15.70;99.90;;;;;;5031761;28;20492;-63
2022/09/25 06:46:28;;;;;;;40.10;22.47;;;;;;;;;;5039614;28;21012;-63
2022/09/25 06:48:56;;;;;;;38.10;18.53;;;;;;;;;;5035799;28;20484;-62
2022/09/25 06:51:31;;;;;;;44.13;20.60;;;15.00;99.90;;;;;;5016573;28;21049;-63
2022/09/25 06:53:58;;;;;;;38.43;20.53;;;;;;;;;;5034449;28;20645;-62
2022/09/25 06:56:25;;;;;;;34.40;19.77;;;;;;;;;;5033694;28;20480;-62
2022/09/25 06:58:52;;;;;;;39.80;20.37;;;15.70;99.90;;;;;;5040133;28;20558;-62
2022/09/25 07:01:20;;;;;;;42.23;22.33;;;15.60;99.90;;;;;;5035385;28;20534;-62
2022/09/25 07:03:47;;;;;;;36.67;21.27;;;15.60;99.90;;;;;;5035425;28;21011;-62
2022/09/25 07:06:16;;;;;;;41.90;21.10;;;15.60;99.90;;;;;;5033610;28;20468;-62
2022/09/25 07:08:43;;;;;;;47.30;22.37;;;15.60;99.90;;;;;;5041435;28;20471;-62
2022/09/25 07:11:14;;;;;;;46.70;23.70;;;15.60;99.90;;;;;;5032062;28;20481;-62
2022/09/25 07:13:41;;;;;;;39.30;20.23;;;15.60;99.90;;;;;;5037533;28;20579;-63
2022/09/25 07:16:11;;;;;;;39.13;20.87;;;15.80;99.90;;;;;;5034160;28;20615;-62
2022/09/25 07:18:39;;;;;;;50.37;22.83;;;15.80;99.90;;;;;;5036434;28;20483;-62
2022/09/25 07:21:07;;;;;;;47.10;24.80;;;15.90;99.90;;;;;;5038993;28;21202;-62
2022/09/25 07:23:35;;;;;;;52.70;22.20;;;15.90;99.90;;;;;;5035179;28;21094;-62
2022/09/25 07:26:06;;;;;;;58.57;25.50;;;16.00;99.90;;;;;;5038255;28;20791;-62
2022/09/25 07:28:33;;;;;;;41.30;23.23;;;16.00;99.90;;;;;;5037178;28;20479;-63
2022/09/25 07:31:10;;;;;;;50.90;25.10;;;16.10;99.90;;;;;;5047090;28;20479;-62
2022/09/25 07:33:38;;;;;;;47.17;23.30;;;16.20;99.90;;;;;;5035569;28;20512;-62
2022/09/25 07:36:05;;;;;;;45.90;24.03;;;16.10;99.90;;;;;;5031802;28;20925;-62
2022/09/25 07:38:33;;;;;;;54.67;25.03;;;15.80;99.90;;;;;;5035766;28;20796;-62
2022/09/25 07:40:59;;;;;;;46.07;25.27;;;15.60;99.90;;;;;;5043145;28;20510;-62
2022/09/25 07:43:26;;;;;;;40.80;23.10;;;15.60;99.90;;;;;;5033455;28;20568;-62
2022/09/25 07:45:53;;;;;;;47.57;26.60;;;15.70;99.90;;;;;;5032970;28;20512;-62
2022/09/25 07:48:22;;;;;;;41.37;23.00;;;15.70;99.90;;;;;;5030916;28;20464;-62
2022/09/25 07:50:50;;;;;;;47.10;24.87;;;15.80;99.90;;;;;;5034917;28;20491;-62
2022/09/25 07:53:17;;;;;;;46.10;23.30;;;15.80;99.90;;;;;;5029117;28;20495;-62
2022/09/25 07:55:44;;;;;;;38.37;21.80;;;15.80;99.90;;;;;;5040611;28;20494;-62
2022/09/25 07:58:11;;;;;;;36.93;20.90;;;;;;;;;;5029144;28;20583;-62
2022/09/25 08:00:39;;;;;;;48.13;22.77;;;;;;;;;;5031796;28;20492;-62
2022/09/25 08:03:06;;;;;;;36.63;20.93;;;15.90;99.90;;;;;;5030312;28;21164;-62
2022/09/25 08:05:33;;;;;;;39.00;22.30;;;15.90;99.90;;;;;;5032117;28;20725;-62
2022/09/25 08:08:02;;;;;;;60.80;23.80;;;15.80;99.90;;;;;;5034532;28;20781;-62
2022/09/25 08:10:29;;;;;;;41.50;21.57;;;15.80;99.90;;;;;;5027754;28;20480;-63
2022/09/25 08:12:56;;;;;;;41.30;23.00;;;15.90;99.90;;;;;;5028819;28;20475;-62
2022/09/25 08:15:24;;;;;;;44.73;20.23;;;15.80;99.90;;;;;;5038920;28;20480;-62
2022/09/25 08:17:51;;;;;;;43.70;22.73;;;;;;;;;;5032402;28;20595;-62
2022/09/25 08:20:19;;;;;;;38.47;22.57;;;15.70;99.90;;;;;;5041205;28;20714;-62
2022/09/25 08:22:46;;;;;;;39.87;19.20;;;15.80;99.90;;;;;;5034359;28;20549;-62
2022/09/25 08:25:14;;;;;;;38.53;20.90;;;15.80;99.90;;;;;;5036666;28;20487;-62
2022/09/25 08:27:42;;;;;;;40.80;24.03;;;15.80;99.90;;;;;;5033706;28;20486;-62
2022/09/25 08:30:12;;;;;;;35.43;19.27;;;15.80;99.90;;;;;;5037365;28;20480;-62
2022/09/25 08:32:39;;;;;;;36.33;19.07;;;15.80;99.90;;;;;;5033081;28;20484;-62
2022/09/25 08:35:07;;;;;;;42.30;21.03;;;15.90;99.90;;;;;;5032950;28;20555;-62
2022/09/25 08:37:34;;;;;;;47.63;23.30;;;16.00;99.90;;;;;;5033294;28;20989;-62
2022/09/25 08:40:01;;;;;;;39.00;19.97;;;16.00;99.90;;;;;;5043489;28;20471;-62
2022/09/25 08:42:31;;;;;;;33.73;20.23;;;;;;;;;;5054612;28;20460;-62
2022/09/25 08:50:34;;;;;;;37.10;21.20;;;16.10;99.90;;;;;;5024485;28;21125;-62
2022/09/25 08:53:05;;;;;;;37.23;21.90;;;16.10;99.90;;;;;;5043667;28;20483;-62
2022/09/25 08:58:24;;;;;;;36.97;21.13;;;16.10;99.90;;;;;;5033918;28;21006;-62
2022/09/25 09:00:52;;;;;;;30.47;18.93;;;16.20;99.90;;;;;;5035812;28;20587;-62
2022/09/25 09:03:21;;;;;;;36.87;23.37;;;16.20;99.90;;;;;;5035624;28;20494;-62
2022/09/25 09:05:51;;;;;;;42.67;20.80;;;;;;;;;;5039515;28;20944;-61
2022/09/25 09:08:24;;;;;;;41.37;22.50;;;16.20;99.90;;;;;;5031955;28;20537;-62
2022/09/25 09:10:54;;;;;;;43.80;21.23;;;16.20;99.90;;;;;;5033329;28;20898;-61
2022/09/25 09:13:26;;;;;;;39.70;22.30;;;16.20;99.90;;;;;;5032189;28;20550;-61
2022/09/25 09:15:55;;;;;;;35.60;20.13;;;;;;;;;;5031571;28;20748;-61
2022/09/25 09:18:24;;;;;;;41.23;20.20;;;16.20;99.90;;;;;;5033545;28;20480;-61
2022/09/25 09:20:53;;;;;;;45.40;22.70;;;16.20;99.90;;;;;;5032880;28;20898;-60
2022/09/25 09:23:21;;;;;;;45.83;23.67;;;16.20;99.90;;;;;;5032580;28;20988;-61
2022/09/25 09:25:59;;;;;;;43.07;22.50;;;17.80;99.90;;;;;;5034736;28;20491;-61
2022/09/25 09:28:49;;;;;;;38.03;22.13;;;16.40;99.90;;;;;;5031916;28;20476;-61
2022/09/25 09:31:22;;;;;;;48.67;23.60;;;16.50;99.90;;;;;;5024627;28;20484;-61
2022/09/25 09:33:57;;;;;;;41.70;20.40;;;16.60;99.90;;;;;;5040357;28;20748;-62
2022/09/25 09:36:33;;;;;;;52.17;24.50;;;16.70;99.90;;;;;;5040911;28;20748;-62
2022/09/25 09:39:08;;;;;;;50.77;21.37;;;16.80;99.90;;;;;;5037071;28;20486;-61
2022/09/25 09:41:45;;;;;;;58.00;21.53;;;17.00;99.90;;;;;;5038028;28;20476;-61
2022/09/25 09:44:30;;;;;;;65.03;25.63;;;17.10;99.90;;;;;;5025581;28;20819;-61
2022/09/25 09:47:04;;;;;;;72.13;24.13;;;17.20;99.90;;;;;;5037685;28;20498;-61
2022/09/25 09:49:35;;;;;;;68.23;24.23;;;17.30;99.90;;;;;;5033401;28;20487;-61
2022/09/25 09:52:07;;;;;;;52.27;20.20;;;17.30;99.90;;;;;;5031465;28;20486;-61
2022/09/25 09:54:41;;;;;;;52.67;19.87;;;17.40;99.90;;;;;;5043696;28;20475;-62
2022/09/25 09:57:15;;;;;;;52.37;19.90;;;17.50;99.90;;;;;;5034630;28;20484;-61
2022/09/25 09:59:48;;;;;;;48.90;17.93;;;17.50;99.90;;;;;;5024817;28;20486;-61
2022/09/25 10:02:28;;;;;;;39.70;20.40;;;17.60;99.90;;;;;;5036734;28;20490;-61
2022/09/25 10:04:56;;;;;;;32.17;16.60;;;17.70;99.90;;;;;;5040296;28;20541;-61
2022/09/25 10:07:26;;;;;;;44.97;21.53;;;17.80;99.90;;;;;;5037448;28;21031;-61
2022/09/25 10:09:54;;;;;;;31.23;15.97;;;17.80;99.90;;;;;;5037438;28;20476;-61
2022/09/25 10:12:27;;;;;;;31.47;17.10;;;17.80;98.80;;;;;;5034866;28;20545;-61
2022/09/25 10:14:57;;;;;;;39.60;17.10;;;17.90;99.50;;;;;;5034138;28;20515;-61
2022/09/25 10:17:25;;;;;;;26.60;15.47;;;18.00;99.90;;;;;;5035814;28;20882;-61
2022/09/25 10:19:54;;;;;;;34.40;15.67;;;18.20;99.10;;;;;;5033735;28;20483;-62
2022/09/25 10:22:24;;;;;;;24.63;13.77;;;18.20;98.40;;;;;;5036284;28;20589;-62
2022/09/25 10:24:54;;;;;;;24.73;13.57;;;18.40;99.90;;;;;;5029780;28;21014;-62
2022/09/25 10:27:26;;;;;;;23.40;16.30;;;18.60;99.10;;;;;;5042982;28;20638;-62
2022/09/25 10:30:20;;;;;;;24.10;12.60;;;18.70;98.70;;;;;;5034922;28;20488;-62
2022/09/25 10:32:56;;;;;;;20.30;13.87;;;19.00;99.60;;;;;;5038673;28;20658;-63
2022/09/25 10:35:25;;;;;;;17.37;12.30;;;19.30;99.90;;;;;;5040054;28;20571;-62
2022/09/25 10:37:55;;;;;;;19.53;13.90;;;19.30;97.10;;;;;;5039256;28;20890;-63
2022/09/25 10:40:26;;;;;;;20.90;11.20;;;19.50;97.60;;;;;;5035713;28;20538;-62
2022/09/25 10:43:08;;;;;;;14.50;10.90;;;19.70;97.80;;;;;;5033157;28;20591;-62
2022/09/25 10:45:39;;;;;;;22.43;11.57;;;19.90;97.60;;;;;;5036744;28;20541;-63
2022/09/25 10:51:16;;;;;;;19.17;11.40;;;20.00;96.80;;;;;;5012436;28;20850;-62
2022/09/25 10:53:44;;;;;;;14.43;10.33;;;20.00;96.30;;;;;;5023827;28;20550;-62
2022/09/25 10:56:15;;;;;;;15.10;10.37;;;19.90;95.80;;;;;;5035486;28;20472;-63
2022/09/25 10:58:46;;;;;;;20.10;11.13;;;19.60;94.40;;;;;;5036931;28;20476;-62
2022/09/25 11:01:15;;;;;;;17.40;11.07;;;;;;;;;;5038267;28;21125;-62
2022/09/25 11:03:49;;;;;;;17.03;11.97;;;19.00;95.30;;;;;;5024002;28;20484;-62
2022/09/25 11:06:19;;;;;;;21.07;13.00;;;;;;;;;;5030573;28;20833;-62
2022/09/25 11:08:50;;;;;;;16.83;10.93;;;18.50;95.70;;;;;;5028560;28;20575;-62
2022/09/25 11:11:25;;;;;;;22.40;14.73;;;18.60;96.50;;;;;;5024604;28;20504;-62
2022/09/25 11:13:54;;;;;;;28.33;11.33;;;18.50;96.10;;;;;;5032346;28;20807;-62
2022/09/25 11:16:41;;;;;;;24.00;12.17;;;18.60;96.80;;;;;;5032029;28;20583;-62
2022/09/25 11:19:08;;;;;;;40.17;12.50;;;;;;;;;;5031415;28;20853;-62
2022/09/25 11:21:42;;;;;;;26.23;15.00;;;18.90;96.50;;;;;;5031134;28;20498;-62
2022/09/25 11:24:17;;;;;;;19.80;10.73;;;18.90;96.40;;;;;;5055240;28;20882;-62
2022/09/25 11:26:50;;;;;;;17.17;11.17;;;19.40;96.10;;;;;;5053545;28;20473;-62
2022/09/25 11:29:23;;;;;;;18.43;12.53;;;18.80;95.80;;;;;;5069691;27;20470;-62
2022/09/25 11:31:57;;;;;;;24.63;11.80;;;18.90;96.80;;;;;;5054024;28;20479;-62
2022/09/25 11:34:36;;;;;;;17.93;11.07;;;18.90;96.60;;;;;;5049641;28;20487;-62
2022/09/25 11:37:10;;;;;;;21.87;10.30;;;19.00;96.30;;;;;;5053321;28;20896;-62
2022/09/25 11:42:36;;;;;;;21.53;10.90;;;18.50;96.50;;;;;;5054873;28;20491;-62
2022/09/25 11:45:08;;;;;;;14.80;9.67;;;18.30;96.30;;;;;;5061077;28;20847;-62
2022/09/25 11:47:42;;;;;;;33.47;11.47;;;18.10;96.30;;;;;;5060293;28;20984;-62
2022/09/25 11:50:14;;;;;;;20.70;11.37;;;17.90;96.90;;;;;;5055662;28;20474;-62
2022/09/25 11:52:51;;;;;;;17.33;11.57;;;17.80;97.40;;;;;;5051896;28;20554;-62
2022/09/25 11:55:48;;;;;;;18.13;10.33;;;17.70;97.70;;;;;;5044060;28;20474;-62
2022/09/25 11:58:34;;;;;;;19.50;9.43;;;17.70;97.20;;;;;;5047399;28;20475;-62
2022/09/25 12:01:12;;;;;;;15.33;10.03;;;17.80;97.40;;;;;;5054152;28;20486;-62
2022/09/25 12:03:59;;;;;;;16.83;9.60;;;17.80;97.40;;;;;;5047861;28;21967;-62
2022/09/25 12:06:58;;;;;;;21.13;10.33;;;17.90;98.00;;;;;;5053818;28;21039;-62
2022/09/25 12:09:52;;;;;;;37.20;11.90;;;17.90;97.70;;;;;;5054893;28;20466;-62
2022/09/25 12:12:28;;;;;;;15.77;10.90;;;17.90;98.10;;;;;;5042853;28;20479;-62
2022/09/25 12:14:59;;;;;;;27.07;9.20;;;;;;;;;;5052571;28;20566;-62
2022/09/25 12:17:35;;;;;;;25.63;11.53;;;17.70;99.20;;;;;;5050763;28;20483;-62
2022/09/25 12:20:10;;;;;;;29.67;9.97;;;17.60;98.80;;;;;;5054942;28;20543;-62
2022/09/25 12:22:47;;;;;;;33.43;12.27;;;17.60;98.80;;;;;;5050740;28;20558;-62
2022/09/25 12:25:25;;;;;;;18.93;9.60;;;17.40;98.90;;;;;;5049276;28;20742;-62
2022/09/25 12:27:57;;;;;;;24.90;10.63;;;;;;;;;;5047701;28;20715;-61
2022/09/25 12:30:25;;;;;;;21.70;12.57;;;;;;;;;;5046580;28;20594;-62
2022/09/25 12:33:14;;;;;;;19.27;10.50;;;17.60;99.60;;;;;;5027865;28;20622;-62
2022/09/25 12:35:49;;;;;;;19.13;7.60;;;17.60;99.60;;;;;;5042291;28;20849;-62
2022/09/25 12:38:24;;;;;;;13.60;8.73;;;17.60;99.20;;;;;;5034476;28;21506;-62
2022/09/25 12:40:56;;;;;;;18.03;8.47;;;17.50;99.00;;;;;;5040165;28;20483;-62
2022/09/25 12:43:28;;;;;;;15.43;8.03;;;17.50;98.90;;;;;;5014134;28;20476;-63
2022/09/25 12:45:59;;;;;;;18.93;6.40;;;;;;;;;;5033745;28;20496;-62
2022/09/25 12:48:33;;;;;;;22.50;8.70;;;17.20;99.10;;;;;;5028838;28;21084;-62
2022/09/25 12:51:07;;;;;;;12.80;6.97;;;17.20;99.20;;;;;;5041630;28;20531;-62
2022/09/25 12:53:38;;;;;;;28.73;8.10;;;17.10;99.30;;;;;;5035585;28;20887;-62
2022/09/25 12:56:12;;;;;;;22.10;10.10;;;17.40;99.90;;;;;;5031065;28;20693;-62
2022/09/25 12:58:51;;;;;;;12.43;6.30;;;17.10;99.80;;;;;;5036525;28;20484;-62
2022/09/25 13:01:24;;;;;;;21.63;9.40;;;17.10;99.90;;;;;;5034390;28;20479;-62
2022/09/25 13:03:55;;;;;;;20.23;7.60;;;;;;;;;;5032615;28;21048;-61
2022/09/25 13:06:29;;;;;;;14.73;6.57;;;;;;;;;;5046272;28;20488;-61
2022/09/25 13:09:04;;;;;;;7.00;5.00;;;17.00;99.90;;;;;;5056312;28;20540;-61
2022/09/25 13:11:37;;;;;;;17.80;5.70;;;16.90;99.90;;;;;;5048444;28;20498;-61
2022/09/25 13:14:16;;;;;;;9.90;3.80;;;;;;;;;;5047317;28;20533;-61
2022/09/25 13:16:47;;;;;;;14.27;3.90;;;16.70;99.40;;;;;;5047369;28;20505;-62
2022/09/25 13:19:26;;;;;;;3.97;3.00;;;16.50;99.20;;;;;;5051179;28;20479;-62
2022/09/25 13:22:03;;;;;;;8.00;4.40;;;16.40;99.30;;;;;;5050741;28;20490;-62